createdAt,value
2023-04-15T00:02:58.386Z,99236.69
2023-04-15T00:06:01.505Z,99230.03
2023-04-15T00:09:03.892Z,99237.53
2023-04-15T00:12:06.292Z,99239.13
2023-04-15T00:15:09.381Z,99230.31
2023-04-15T00:18:11.517Z,99233.25
2023-04-15T00:21:13.733Z,99239.13
2023-04-15T00:24:15.884Z,99241.56
2023-04-15T00:27:18.101Z,99245.59
2023-04-15T00:30:20.536Z,99236.53
2023-04-15T00:33:22.762Z,99236.22
2023-04-15T00:36:25.596Z,99228.22
2023-04-15T00:39:28.147Z,99235.44
2023-04-15T00:42:30.303Z,99229.31
2023-04-15T00:45:33.393Z,99235.78
2023-04-15T00:48:36.329Z,99227.50
2023-04-15T00:51:38.541Z,99233.69
2023-04-15T00:54:40.745Z,99231.50
2023-04-15T00:57:43.071Z,99227.69
2023-04-15T01:00:46.132Z,99221.78
2023-04-15T01:03:50.463Z,99221.78
2023-04-15T01:06:52.850Z,99208.97
2023-04-15T01:09:55.654Z,99212.50
2023-04-15T01:12:58.049Z,99212.47
2023-04-15T01:16:03.039Z,99206.66
2023-04-15T01:19:09.066Z,99213.03
2023-04-15T01:22:11.360Z,99190.44
2023-04-15T01:25:18.695Z,99206.31
2023-04-15T01:28:21.339Z,99210.38
2023-04-15T01:31:23.568Z,99213.03
2023-04-15T01:34:25.813Z,99215.88
2023-04-15T01:37:29.806Z,99221.41
2023-04-15T01:40:32.411Z,99224.63
2023-04-15T01:43:36.377Z,99221.78
2023-04-15T01:46:38.648Z,99226.66
2023-04-15T01:49:40.992Z,99233.59
2023-04-15T01:52:43.387Z,99218.81
2023-04-15T01:55:45.679Z,99217.06
2023-04-15T01:58:50.124Z,99225.31
2023-04-15T02:01:52.408Z,99223.72
2023-04-15T02:04:55.656Z,99227.50
2023-04-15T02:07:58.126Z,99224.56
2023-04-15T02:11:01.214Z,99227.78
2023-04-15T02:14:05.759Z,99223.78
2023-04-15T02:17:08.426Z,99231.50
2023-04-15T02:20:11.373Z,99230.09
2023-04-15T02:23:13.707Z,99240.50
2023-04-15T02:26:19.112Z,99236.25
2023-04-15T02:29:21.355Z,99226.41
2023-04-15T02:32:24.513Z,99234.97
2023-04-15T02:35:27.027Z,99239.78
2023-04-15T02:38:29.637Z,99244.09
2023-04-15T02:41:31.875Z,99251.63
2023-04-15T02:44:36.431Z,99246.47
2023-04-15T02:47:41.550Z,99249.38
2023-04-15T02:50:43.906Z,99244.28
2023-04-15T02:53:49.455Z,99249.91
2023-04-15T02:56:55.296Z,99237.66
2023-04-15T02:59:57.812Z,99236.34
2023-04-15T03:03:03.425Z,99238.28
2023-04-15T03:06:06.105Z,99227.06
2023-04-15T03:09:08.313Z,99237.22
2023-04-15T03:12:11.761Z,99223.63
2023-04-15T03:15:14.003Z,99218.50
2023-04-15T03:18:20.104Z,99219.56
2023-04-15T03:21:22.213Z,99218.28
2023-04-15T03:24:24.972Z,99215.53
2023-04-15T03:27:27.452Z,99220.88
2023-04-15T03:30:33.246Z,99222.50
2023-04-15T03:33:35.414Z,99220.13
2023-04-15T03:36:37.631Z,99218.22
2023-04-15T03:39:39.803Z,99225.69
2023-04-15T03:42:41.988Z,99243.38
2023-04-15T03:45:44.130Z,99225.75
2023-04-15T03:48:47.254Z,99227.34
2023-04-15T03:51:49.448Z,99240.44
2023-04-15T03:54:51.661Z,99235.63
2023-04-15T03:57:53.807Z,99231.59
2023-04-15T04:00:56.249Z,99222.00
2023-04-15T04:03:58.836Z,99230.06
2023-04-15T04:07:01.468Z,99225.78
2023-04-15T04:10:03.884Z,99226.06
2023-04-15T04:13:06.093Z,99221.81
2023-04-15T04:16:08.494Z,99233.34
2023-04-15T04:19:10.841Z,99228.22
2023-04-15T04:22:14.201Z,99227.91
2023-04-15T04:25:16.414Z,99228.19
2023-04-15T04:28:18.533Z,99233.25
2023-04-15T04:31:21.234Z,99210.09
2023-04-15T04:34:23.437Z,99224.28
2023-04-15T04:37:25.677Z,99221.63
2023-04-15T04:40:27.816Z,99223.75
2023-04-15T04:43:30.225Z,99221.91
2023-04-15T04:46:32.435Z,99220.03
2023-04-15T04:49:34.613Z,99220.28
2023-04-15T04:52:36.801Z,99219.56
2023-04-15T04:55:38.929Z,99215.31
2023-04-15T04:58:41.636Z,99222.03
2023-04-15T05:01:43.869Z,99225.84
2023-04-15T05:04:46.059Z,99222.09
2023-04-15T05:07:50.291Z,99225.84
2023-04-15T05:10:52.439Z,99222.03
2023-04-15T05:13:54.610Z,99229.75
2023-04-15T05:16:56.892Z,99227.34
2023-04-15T05:19:59.006Z,99227.06
2023-04-15T05:23:01.183Z,99232.66
2023-04-15T05:26:03.554Z,99239.63
2023-04-15T05:29:05.737Z,99231.38
2023-04-15T05:32:08.024Z,99230.28
2023-04-15T05:35:10.141Z,99238.91
2023-04-15T05:38:12.265Z,99242.44
2023-04-15T05:41:17.172Z,99252.91
2023-04-15T05:44:21.324Z,99243.78
2023-04-15T05:47:23.905Z,99238.97
2023-04-15T05:50:26.328Z,99244.34
2023-04-15T05:53:28.526Z,99248.91
2023-04-15T05:56:30.714Z,99254.28
2023-04-15T05:59:32.979Z,99252.16
2023-04-15T06:02:35.303Z,99255.66
2023-04-15T06:05:37.700Z,99259.69
2023-04-15T06:08:39.909Z,99263.16
2023-04-15T06:11:42.138Z,99263.16
2023-04-15T06:14:44.291Z,99262.38
2023-04-15T06:17:46.480Z,99265.59
2023-04-15T06:20:48.765Z,99277.41
2023-04-15T06:23:51.030Z,99271.75
2023-04-15T06:26:53.145Z,99278.72
2023-04-15T06:29:55.313Z,99284.09
2023-04-15T06:32:57.562Z,99277.66
2023-04-15T06:35:59.817Z,99280.88
2023-04-15T06:39:02.840Z,99284.91
2023-04-15T06:42:05.282Z,99291.63
2023-04-15T06:45:08.696Z,99293.00
2023-04-15T06:48:10.899Z,99297.88
2023-04-15T06:51:13.089Z,99286.59
2023-04-15T06:54:15.370Z,99286.03
2023-04-15T06:57:17.535Z,99291.94
2023-04-15T07:00:20.261Z,99291.44
2023-04-15T07:03:22.510Z,99292.75
2023-04-15T07:06:24.708Z,99294.38
2023-04-15T07:09:26.880Z,99301.88
2023-04-15T07:12:29.072Z,99293.31
2023-04-15T07:15:31.351Z,99289.81
2023-04-15T07:18:33.510Z,99283.34
2023-04-15T07:21:35.757Z,99290.84
2023-04-15T07:24:37.972Z,99293.50
2023-04-15T07:27:40.284Z,99300.47
2023-04-15T07:30:42.596Z,99300.50
2023-04-15T07:33:45.562Z,99295.63
2023-04-15T07:36:51.905Z,99295.91
2023-04-15T07:39:54.583Z,99301.81
2023-04-15T07:42:58.330Z,99299.09
2023-04-15T07:46:00.669Z,99306.09
2023-04-15T07:49:03.059Z,99310.94
2023-04-15T07:52:05.929Z,99306.38
2023-04-15T07:55:11.573Z,99314.16
2023-04-15T07:58:13.784Z,99302.63
2023-04-15T08:01:16.524Z,99304.22
2023-04-15T08:04:18.758Z,99305.00
2023-04-15T08:07:21.459Z,99308.44
2023-04-15T08:10:23.695Z,99309.50
2023-04-15T08:13:26.456Z,99309.50
2023-04-15T08:16:28.750Z,99311.41
2023-04-15T08:19:31.171Z,99304.94
2023-04-15T08:22:33.415Z,99305.19
2023-04-15T08:25:35.621Z,99316.16
2023-04-15T08:28:38.883Z,99317.44
2023-04-15T08:31:41.164Z,99313.91
2023-04-15T08:34:43.372Z,99312.78
2023-04-15T08:37:45.545Z,99323.41
2023-04-15T08:40:47.663Z,99319.34
2023-04-15T08:44:05.764Z,99324.97
2023-04-15T08:47:08.853Z,99326.66
2023-04-15T08:50:11.772Z,99333.66
2023-04-15T08:53:14.844Z,99331.31
2023-04-15T08:56:17.211Z,99330.78
2023-04-15T08:59:21.827Z,99329.47
2023-04-15T09:02:25.915Z,99344.47
2023-04-15T09:05:28.136Z,99341.06
2023-04-15T09:08:30.351Z,99336.22
2023-04-15T09:11:32.573Z,99337.03
2023-04-15T09:14:35.093Z,99338.41
2023-04-15T09:17:43.128Z,99332.19
2023-04-15T09:20:45.270Z,99334.00
2023-04-15T09:24:01.660Z,99329.94
2023-04-15T09:27:04.420Z,99331.84
2023-04-15T09:30:09.016Z,99340.97
2023-04-15T09:33:14.610Z,99343.03
2023-04-15T09:36:16.866Z,99336.25
2023-04-15T09:39:19.004Z,99326.53
2023-04-15T09:42:24.278Z,99330.63
2023-04-15T09:45:37.039Z,99334.94
2023-04-15T09:48:50.901Z,99334.94
2023-04-15T09:52:05.711Z,99331.72
2023-04-15T09:55:08.945Z,99338.47
2023-04-15T09:58:18.480Z,99337.97
2023-04-15T10:01:20.729Z,99336.88
2023-04-15T10:04:24.278Z,99336.84
2023-04-15T10:07:27.220Z,99336.78
2023-04-15T10:10:29.525Z,99337.84
2023-04-15T10:13:37.109Z,99340.25
2023-04-15T10:16:40.454Z,99340.53
2023-04-15T10:19:42.904Z,99342.72
2023-04-15T10:22:45.477Z,99340.81
2023-04-15T10:25:49.293Z,99345.44
2023-04-15T10:29:00.170Z,99350.34
2023-04-15T10:32:03.225Z,99360.25
2023-04-15T10:35:06.315Z,99340.09
2023-04-15T10:38:45.434Z,99348.41
2023-04-15T10:42:14.410Z,99352.44
2023-04-15T10:45:17.893Z,99346.53
2023-04-15T10:48:20.067Z,99342.25
2023-04-15T10:51:34.424Z,99350.84
2023-04-15T10:54:38.962Z,99360.56
2023-04-15T10:57:42.518Z,99357.06
2023-04-15T11:00:51.178Z,99366.72
2023-04-15T11:03:55.689Z,99357.34
2023-04-15T11:07:07.448Z,99368.44
2023-04-15T11:10:18.696Z,99371.41
2023-04-15T11:13:25.400Z,99380.09
2023-04-15T11:16:29.805Z,99372.63
2023-04-15T11:19:38.986Z,99369.44
2023-04-15T11:22:50.553Z,99378.28
2023-04-15T11:25:55.226Z,99377.72
2023-04-15T11:29:00.050Z,99375.31
2023-04-15T11:32:06.914Z,99378.53
2023-04-15T11:35:09.304Z,99365.06
2023-04-15T11:38:13.769Z,99370.69
2023-04-15T11:41:20.990Z,99372.56
2023-04-15T11:44:23.183Z,99378.19
2023-04-15T11:47:25.473Z,99379.78
2023-04-15T11:50:27.731Z,99380.03
2023-04-15T11:53:39.277Z,99386.44
2023-04-15T11:56:41.575Z,99385.34
2023-04-15T11:59:45.725Z,99388.28
2023-04-15T12:02:48.765Z,99377.00
2023-04-15T12:06:07.212Z,99393.13
2023-04-15T12:09:11.094Z,99388.28
2023-04-15T12:12:13.297Z,99394.50
2023-04-15T12:15:15.714Z,99383.72
2023-04-15T12:18:19.320Z,99394.16
2023-04-15T12:21:26.531Z,99379.59
2023-04-15T12:24:33.261Z,99387.09
2023-04-15T12:27:36.214Z,99380.59
2023-04-15T12:30:51.600Z,99387.28
2023-04-15T12:33:58.757Z,99403.75
2023-04-15T12:37:02.415Z,99395.16
2023-04-15T12:40:08.596Z,99394.13
2023-04-15T12:43:10.935Z,99395.50
2023-04-15T12:46:16.215Z,99400.38
2023-04-15T12:49:20.912Z,99400.94
2023-04-15T12:52:24.461Z,99408.97
2023-04-15T12:55:26.669Z,99406.84
2023-04-15T12:58:28.871Z,99411.13
2023-04-15T13:01:31.215Z,99417.06
2023-04-15T13:04:35.364Z,99420.56
2023-04-15T13:07:37.670Z,99418.72
2023-04-15T13:10:39.847Z,99420.31
2023-04-15T13:13:42.084Z,99425.16
2023-04-15T13:16:44.323Z,99420.84
2023-04-15T13:19:46.454Z,99413.63
2023-04-15T13:22:48.633Z,99415.78
2023-04-15T13:25:50.785Z,99413.38
2023-04-15T13:28:53.102Z,99417.66
2023-04-15T13:31:56.707Z,99411.22
2023-04-15T13:35:02.188Z,99411.69
2023-04-15T13:38:04.329Z,99412.50
2023-04-15T13:41:06.512Z,99416.53
2023-04-15T13:44:08.643Z,99424.63
2023-04-15T13:47:11.073Z,99425.16
2023-04-15T13:50:13.341Z,99434.84
2023-04-15T13:53:15.561Z,99430.56
2023-04-15T13:56:17.703Z,99429.22
2023-04-15T13:59:19.888Z,99437.03
2023-04-15T14:02:23.449Z,99442.19
2023-04-15T14:05:25.708Z,99435.47
2023-04-15T14:08:27.877Z,99440.31
2023-04-15T14:11:30.111Z,99439.50
2023-04-15T14:14:32.452Z,99447.00
2023-04-15T14:17:34.714Z,99442.69
2023-04-15T14:20:36.854Z,99446.72
2023-04-15T14:23:40.005Z,99444.03
2023-04-15T14:26:43.961Z,99451.00
2023-04-15T14:29:46.097Z,99462.56
2023-04-15T14:32:48.273Z,99455.59
2023-04-15T14:35:51.503Z,99460.75
2023-04-15T14:38:53.656Z,99457.28
2023-04-15T14:41:56.588Z,99462.66
2023-04-15T14:44:58.806Z,99465.09
2023-04-15T14:48:01.557Z,99468.31
2023-04-15T14:51:04.028Z,99468.31
2023-04-15T14:54:06.296Z,99471.81
2023-04-15T14:57:09.151Z,99469.66
2023-04-15T15:00:13.692Z,99475.03
2023-04-15T15:03:18.686Z,99479.88
2023-04-15T15:06:22.243Z,99478.25
2023-04-15T15:09:25.059Z,99467.19
2023-04-15T15:12:27.226Z,99462.34
2023-04-15T15:15:29.489Z,99471.50
2023-04-15T15:18:31.789Z,99486.03
2023-04-15T15:21:34.326Z,99490.34
2023-04-15T15:24:36.466Z,99481.75
2023-04-15T15:27:38.602Z,99490.09
2023-04-15T15:30:41.011Z,99482.28
2023-04-15T15:33:43.346Z,99499.53
2023-04-15T15:36:45.512Z,99499.81
2023-04-15T15:39:49.060Z,99507.06
2023-04-15T15:42:51.261Z,99513.00
2023-04-15T15:45:55.454Z,99511.91
2023-04-15T15:48:58.232Z,99517.84
2023-04-15T15:52:00.756Z,99525.63
2023-04-15T15:55:03.170Z,99528.59
2023-04-15T15:58:05.677Z,99532.34
2023-04-15T16:01:07.846Z,99544.19
2023-04-15T16:04:10.414Z,99540.16
2023-04-15T16:07:13.167Z,99552.00
2023-04-15T16:10:16.023Z,99552.00
2023-04-15T16:13:18.261Z,99547.41
2023-04-15T16:16:20.567Z,99553.31
2023-04-15T16:19:22.764Z,99549.00
2023-04-15T16:22:26.430Z,99555.47
2023-04-15T16:25:28.589Z,99557.63
2023-04-15T16:28:30.778Z,99558.69
2023-04-15T16:31:33.089Z,99554.06
2023-04-15T16:34:35.774Z,99556.75
2023-04-15T16:37:37.917Z,99554.06
2023-04-15T16:40:40.065Z,99559.75
2023-04-15T16:43:42.370Z,99546.84
2023-04-15T16:46:44.544Z,99552.19
2023-04-15T16:49:46.711Z,99565.59
2023-04-15T16:52:48.886Z,99561.88
2023-04-15T16:55:51.130Z,99566.16
2023-04-15T16:58:53.377Z,99577.16
2023-04-15T17:01:55.912Z,99582.28
2023-04-15T17:04:58.182Z,99586.84
2023-04-15T17:08:00.387Z,99598.41
2023-04-15T17:11:02.557Z,99594.63
2023-04-15T17:14:04.764Z,99592.16
2023-04-15T17:17:06.979Z,99606.41
2023-04-15T17:20:09.707Z,99606.38
2023-04-15T17:23:11.823Z,99609.34
2023-04-15T17:26:14.068Z,99615.47
2023-04-15T17:29:16.230Z,99626.78
2023-04-15T17:32:18.469Z,99631.03
2023-04-15T17:35:20.899Z,99628.91
2023-04-15T17:38:23.030Z,99627.75
2023-04-15T17:41:25.330Z,99644.41
2023-04-15T17:44:27.535Z,99636.06
2023-04-15T17:47:29.738Z,99641.19
2023-04-15T17:50:31.931Z,99649.50
2023-04-15T17:53:34.117Z,99641.13
2023-04-15T17:56:36.527Z,99657.22
2023-04-15T17:59:38.729Z,99654.25
2023-04-15T18:02:44.000Z,99654.47
2023-04-15T18:05:46.353Z,99661.72
2023-04-15T18:08:48.851Z,99663.59
2023-04-15T18:11:51.220Z,99668.94
2023-04-15T18:14:53.389Z,99676.19
2023-04-15T18:17:55.743Z,99672.41
2023-04-15T18:20:57.934Z,99678.03
2023-04-15T18:24:00.252Z,99672.59
2023-04-15T18:27:02.421Z,99691.16
2023-04-15T18:30:07.164Z,99689.50
2023-04-15T18:33:09.386Z,99693.78
2023-04-15T18:36:11.601Z,99701.00
2023-04-15T18:39:13.755Z,99709.94
2023-04-15T18:42:15.940Z,99710.69
2023-04-15T18:45:18.423Z,99710.91
2023-04-15T18:48:21.061Z,99716.75
2023-04-15T18:51:23.239Z,99731.22
2023-04-15T18:54:28.445Z,99736.56
2023-04-15T18:57:34.888Z,99739.53
2023-04-15T19:00:41.841Z,99747.56
2023-04-15T19:03:44.208Z,99752.63
2023-04-15T19:06:49.518Z,99764.94
2023-04-15T19:09:51.767Z,99764.63
2023-04-15T19:12:54.771Z,99769.47
2023-04-15T19:15:57.091Z,99776.47
2023-04-15T19:18:59.262Z,99775.41
2023-04-15T19:22:03.265Z,99783.19
2023-04-15T19:25:06.003Z,99785.34
2023-04-15T19:28:09.761Z,99785.28
2023-04-15T19:31:11.976Z,99780.91
2023-04-15T19:34:14.616Z,99791.34
2023-04-15T19:37:17.246Z,99798.34
2023-04-15T19:40:19.462Z,99792.16
2023-04-15T19:43:21.567Z,99800.69
2023-04-15T19:46:24.074Z,99799.34
2023-04-15T19:49:26.900Z,99806.31
2023-04-15T19:52:29.247Z,99800.13
2023-04-15T19:55:31.705Z,99802.06
2023-04-15T19:58:33.961Z,99804.72
2023-04-15T20:01:36.520Z,99805.19
2023-04-15T20:04:38.885Z,99809.25
2023-04-15T20:07:42.739Z,99814.00
2023-04-15T20:10:44.991Z,99809.94
2023-04-15T20:13:47.233Z,99822.84
2023-04-15T20:16:49.665Z,99822.84
2023-04-15T20:19:51.852Z,99830.88
2023-04-15T20:22:54.027Z,99829.84
2023-04-15T20:25:56.676Z,99823.09
2023-04-15T20:28:59.286Z,99819.00
2023-04-15T20:32:01.720Z,99819.50
2023-04-15T20:35:05.119Z,99824.06
2023-04-15T20:38:07.332Z,99822.66
2023-04-15T20:41:09.483Z,99833.94
2023-04-15T20:44:11.680Z,99832.56
2023-04-15T20:47:13.871Z,99828.53
2023-04-15T20:50:16.110Z,99836.59
2023-04-15T20:53:18.293Z,99839.25
2023-04-15T20:56:20.472Z,99832.00
2023-04-15T20:59:22.766Z,99844.94
2023-04-15T21:02:25.060Z,99840.88
2023-04-15T21:05:27.433Z,99852.41
2023-04-15T21:08:30.425Z,99857.19
2023-04-15T21:11:53.222Z,99859.63
2023-04-15T21:14:54.918Z,99860.69
2023-04-15T21:17:57.064Z,99868.97
2023-04-15T21:21:00.537Z,99861.19
2023-04-15T21:24:02.766Z,99876.22
2023-04-15T21:27:04.989Z,99877.50
2023-04-15T21:30:07.686Z,99885.81
2023-04-15T21:33:09.788Z,99884.69
2023-04-15T21:36:11.908Z,99882.72
2023-04-15T21:39:14.115Z,99888.91
2023-04-15T21:42:16.466Z,99881.38
2023-04-15T21:45:18.741Z,99899.38
2023-04-15T21:48:21.118Z,99898.56
2023-04-15T21:51:23.316Z,99899.06
2023-04-15T21:54:25.564Z,99893.66
2023-04-15T21:57:27.712Z,99907.81
2023-04-15T22:00:30.163Z,99899.22
2023-04-15T22:03:34.417Z,99899.00
2023-04-15T22:06:36.896Z,99898.91
2023-04-15T22:09:39.146Z,99902.34
2023-04-15T22:12:44.220Z,99904.22
2023-04-15T22:15:46.353Z,99902.41
2023-04-15T22:18:48.633Z,99905.03
2023-04-15T22:21:51.505Z,99912.81
2023-04-15T22:24:53.587Z,99916.63
2023-04-15T22:27:55.747Z,99920.34
2023-04-15T22:30:58.966Z,99917.66
2023-04-15T22:34:01.246Z,99910.69
2023-04-15T22:37:03.379Z,99911.25
2023-04-15T22:40:06.237Z,99912.88
2023-04-15T22:43:08.578Z,99924.88
2023-04-15T22:46:10.998Z,99921.69
2023-04-15T22:49:13.150Z,99924.31
2023-04-15T22:52:29.368Z,99911.41
2023-04-15T22:55:32.613Z,99929.25
2023-04-15T22:58:34.836Z,99923.00
2023-04-15T23:01:38.264Z,99931.84
2023-04-15T23:04:40.751Z,99925.59
2023-04-15T23:07:43.092Z,99918.94
2023-04-15T23:10:45.669Z,99928.28
2023-04-15T23:13:47.870Z,99930.50
2023-04-15T23:16:50.059Z,99921.31
2023-04-15T23:19:52.249Z,99926.94
2023-04-15T23:22:54.392Z,99922.88
2023-04-15T23:25:56.503Z,99919.63
2023-04-15T23:28:58.666Z,99911.31
2023-04-15T23:32:01.015Z,99926.84
2023-04-15T23:35:03.445Z,99922.56
2023-04-15T23:38:05.679Z,99932.19
2023-04-15T23:41:09.172Z,99931.16
2023-04-15T23:44:11.499Z,99931.38
2023-04-15T23:47:13.612Z,99941.88
2023-04-15T23:50:15.814Z,99945.84
2023-04-15T23:53:18.100Z,99937.22
2023-04-15T23:56:20.948Z,99940.16
2023-04-15T23:59:23.111Z,99933.66
